sensor_id;sensor_type;location;lat;lon;timestamp;temperature;humidity
14786;DHT22;7484;49.906;9.058;2023-04-15T00:01:27;7.70;99.90
14786;DHT22;7484;49.906;9.058;2023-04-15T00:03:55;7.80;99.90
14786;DHT22;7484;49.906;9.058;2023-04-15T00:06:23;8.00;99.90
14786;DHT22;7484;49.906;9.058;2023-04-15T00:08:50;8.10;99.90
14786;DHT22;7484;49.906;9.058;2023-04-15T00:11:18;8.10;99.90
14786;DHT22;7484;49.906;9.058;2023-04-15T00:13:45;8.20;99.90
14786;DHT22;7484;49.906;9.058;2023-04-15T00:16:11;8.20;99.90
14786;DHT22;7484;49.906;9.058;2023-04-15T00:18:38;8.30;99.90
14786;DHT22;7484;49.906;9.058;2023-04-15T00:21:05;8.40;99.90
14786;DHT22;7484;49.906;9.058;2023-04-15T00:23:33;8.40;99.90
14786;DHT22;7484;49.906;9.058;2023-04-15T00:26:00;8.40;99.90
14786;DHT22;7484;49.906;9.058;2023-04-15T00:28:27;8.30;99.90
14786;DHT22;7484;49.906;9.058;2023-04-15T00:30:56;8.30;99.90
14786;DHT22;7484;49.906;9.058;2023-04-15T00:33:22;8.10;99.90
14786;DHT22;7484;49.906;9.058;2023-04-15T00:38:25;7.80;99.90
14786;DHT22;7484;49.906;9.058;2023-04-15T00:40:54;7.70;99.90
14786;DHT22;7484;49.906;9.058;2023-04-15T00:43:21;7.80;99.90
14786;DHT22;7484;49.906;9.058;2023-04-15T00:45:51;7.60;99.90
14786;DHT22;7484;49.906;9.058;2023-04-15T00:48:19;6.60;99.90
14786;DHT22;7484;49.906;9.058;2023-04-15T00:50:46;7.50;99.90
14786;DHT22;7484;49.906;9.058;2023-04-15T00:53:13;7.60;99.90
14786;DHT22;7484;49.906;9.058;2023-04-15T00:55:41;7.80;99.90
14786;DHT22;7484;49.906;9.058;2023-04-15T00:58:09;7.80;99.90
14786;DHT22;7484;49.906;9.058;2023-04-15T01:00:36;7.40;99.90
14786;DHT22;7484;49.906;9.058;2023-04-15T01:03:03;7.20;99.90
14786;DHT22;7484;49.906;9.058;2023-04-15T01:05:31;7.20;99.90
14786;DHT22;7484;49.906;9.058;2023-04-15T01:07:58;7.10;99.90
14786;DHT22;7484;49.906;9.058;2023-04-15T01:10:25;6.90;99.90
14786;DHT22;7484;49.906;9.058;2023-04-15T01:12:52;7.00;99.90
14786;DHT22;7484;49.906;9.058;2023-04-15T01:15:20;6.90;99.90
14786;DHT22;7484;49.906;9.058;2023-04-15T01:17:47;6.70;99.90
14786;DHT22;7484;49.906;9.058;2023-04-15T01:20:14;6.40;99.90
14786;DHT22;7484;49.906;9.058;2023-04-15T01:22:41;6.40;99.90
14786;DHT22;7484;49.906;9.058;2023-04-15T01:25:11;6.40;99.90
14786;DHT22;7484;49.906;9.058;2023-04-15T01:27:40;6.20;99.90
14786;DHT22;7484;49.906;9.058;2023-04-15T01:30:09;5.90;99.90
14786;DHT22;7484;49.906;9.058;2023-04-15T01:32:36;5.80;99.90
14786;DHT22;7484;49.906;9.058;2023-04-15T01:35:03;5.70;99.90
14786;DHT22;7484;49.906;9.058;2023-04-15T01:37:30;5.70;99.90
14786;DHT22;7484;49.906;9.058;2023-04-15T01:39:57;5.60;99.90
14786;DHT22;7484;49.906;9.058;2023-04-15T01:42:24;5.70;99.90
14786;DHT22;7484;49.906;9.058;2023-04-15T01:44:53;5.60;99.90
14786;DHT22;7484;49.906;9.058;2023-04-15T01:47:20;5.60;99.90
14786;DHT22;7484;49.906;9.058;2023-04-15T01:49:47;5.60;99.90
14786;DHT22;7484;49.906;9.058;2023-04-15T01:52:14;5.70;99.90
14786;DHT22;7484;49.906;9.058;2023-04-15T01:54:41;6.00;99.90
14786;DHT22;7484;49.906;9.058;2023-04-15T01:57:07;6.20;99.90
14786;DHT22;7484;49.906;9.058;2023-04-15T01:59:35;6.20;99.90
14786;DHT22;7484;49.906;9.058;2023-04-15T02:02:03;6.40;99.90
14786;DHT22;7484;49.906;9.058;2023-04-15T02:04:30;6.70;99.90
14786;DHT22;7484;49.906;9.058;2023-04-15T02:06:59;7.00;99.90
14786;DHT22;7484;49.906;9.058;2023-04-15T02:09:26;7.20;99.90
14786;DHT22;7484;49.906;9.058;2023-04-15T02:11:53;7.40;99.90
14786;DHT22;7484;49.906;9.058;2023-04-15T02:14:20;7.50;99.90
14786;DHT22;7484;49.906;9.058;2023-04-15T02:16:46;7.60;99.90
14786;DHT22;7484;49.906;9.058;2023-04-15T02:19:16;7.60;99.90
14786;DHT22;7484;49.906;9.058;2023-04-15T02:21:43;7.40;99.90
14786;DHT22;7484;49.906;9.058;2023-04-15T02:24:10;7.60;99.90
14786;DHT22;7484;49.906;9.058;2023-04-15T02:26:40;7.60;99.90
14786;DHT22;7484;49.906;9.058;2023-04-15T02:29:07;7.60;99.90
14786;DHT22;7484;49.906;9.058;2023-04-15T02:31:33;7.60;99.90
14786;DHT22;7484;49.906;9.058;2023-04-15T02:34:04;7.50;99.90
14786;DHT22;7484;49.906;9.058;2023-04-15T02:36:33;7.30;99.90
14786;DHT22;7484;49.906;9.058;2023-04-15T02:39:00;7.20;99.90
14786;DHT22;7484;49.906;9.058;2023-04-15T02:41:28;7.30;99.90
14786;DHT22;7484;49.906;9.058;2023-04-15T02:43:55;7.30;99.90
14786;DHT22;7484;49.906;9.058;2023-04-15T02:46:22;7.20;99.90
14786;DHT22;7484;49.906;9.058;2023-04-15T02:48:49;7.20;99.90
14786;DHT22;7484;49.906;9.058;2023-04-15T02:51:19;7.20;99.90
14786;DHT22;7484;49.906;9.058;2023-04-15T02:53:47;7.10;99.90
14786;DHT22;7484;49.906;9.058;2023-04-15T02:56:15;6.90;99.90
14786;DHT22;7484;49.906;9.058;2023-04-15T02:58:43;6.70;99.90
14786;DHT22;7484;49.906;9.058;2023-04-15T03:01:10;6.60;99.90
14786;DHT22;7484;49.906;9.058;2023-04-15T03:03:38;6.40;99.90
14786;DHT22;7484;49.906;9.058;2023-04-15T03:06:05;6.30;99.90
14786;DHT22;7484;49.906;9.058;2023-04-15T03:08:33;6.10;99.90
14786;DHT22;7484;49.906;9.058;2023-04-15T03:11:02;5.90;99.90
14786;DHT22;7484;49.906;9.058;2023-04-15T03:13:29;5.70;99.90
14786;DHT22;7484;49.906;9.058;2023-04-15T03:15:58;5.50;99.90
14786;DHT22;7484;49.906;9.058;2023-04-15T03:18:26;5.40;99.90
14786;DHT22;7484;49.906;9.058;2023-04-15T03:20:53;5.50;99.90
14786;DHT22;7484;49.906;9.058;2023-04-15T03:23:21;5.50;99.90
14786;DHT22;7484;49.906;9.058;2023-04-15T03:25:48;5.50;99.90
14786;DHT22;7484;49.906;9.058;2023-04-15T03:28:17;5.70;99.90
14786;DHT22;7484;49.906;9.058;2023-04-15T03:30:44;5.40;99.90
14786;DHT22;7484;49.906;9.058;2023-04-15T03:33:11;5.40;99.90
14786;DHT22;7484;49.906;9.058;2023-04-15T03:35:38;5.40;99.90
14786;DHT22;7484;49.906;9.058;2023-04-15T03:38:05;5.40;99.90
14786;DHT22;7484;49.906;9.058;2023-04-15T03:40:31;5.30;99.90
14786;DHT22;7484;49.906;9.058;2023-04-15T03:42:58;5.40;99.90
14786;DHT22;7484;49.906;9.058;2023-04-15T03:45:26;5.40;99.90
14786;DHT22;7484;49.906;9.058;2023-04-15T03:47:53;5.50;99.90
14786;DHT22;7484;49.906;9.058;2023-04-15T03:50:20;5.50;99.90
14786;DHT22;7484;49.906;9.058;2023-04-15T03:52:47;5.40;99.90
14786;DHT22;7484;49.906;9.058;2023-04-15T03:55:14;5.40;99.90
14786;DHT22;7484;49.906;9.058;2023-04-15T03:57:41;5.40;99.90
14786;DHT22;7484;49.906;9.058;2023-04-15T04:00:09;5.40;99.90
14786;DHT22;7484;49.906;9.058;2023-04-15T04:02:40;5.50;99.90
14786;DHT22;7484;49.906;9.058;2023-04-15T04:05:07;5.90;99.90
14786;DHT22;7484;49.906;9.058;2023-04-15T04:07:34;6.10;99.90
14786;DHT22;7484;49.906;9.058;2023-04-15T04:10:01;6.30;99.90
14786;DHT22;7484;49.906;9.058;2023-04-15T04:12:29;6.20;99.90
14786;DHT22;7484;49.906;9.058;2023-04-15T04:14:56;6.20;99.90
14786;DHT22;7484;49.906;9.058;2023-04-15T04:17:23;6.20;99.90
14786;DHT22;7484;49.906;9.058;2023-04-15T04:19:51;6.40;99.90
14786;DHT22;7484;49.906;9.058;2023-04-15T04:22:21;6.60;99.90
14786;DHT22;7484;49.906;9.058;2023-04-15T04:24:48;6.70;99.90
14786;DHT22;7484;49.906;9.058;2023-04-15T04:27:15;6.90;99.90
14786;DHT22;7484;49.906;9.058;2023-04-15T04:29:42;6.90;99.90
14786;DHT22;7484;49.906;9.058;2023-04-15T04:32:09;6.80;99.90
14786;DHT22;7484;49.906;9.058;2023-04-15T04:34:36;6.90;99.90
14786;DHT22;7484;49.906;9.058;2023-04-15T04:37:04;6.90;99.90
14786;DHT22;7484;49.906;9.058;2023-04-15T04:39:31;6.60;99.90
14786;DHT22;7484;49.906;9.058;2023-04-15T04:41:58;6.60;99.90
14786;DHT22;7484;49.906;9.058;2023-04-15T04:44:25;6.20;99.90
14786;DHT22;7484;49.906;9.058;2023-04-15T04:46:52;6.00;99.90
14786;DHT22;7484;49.906;9.058;2023-04-15T04:49:19;5.90;99.90
14786;DHT22;7484;49.906;9.058;2023-04-15T04:51:46;5.80;99.90
14786;DHT22;7484;49.906;9.058;2023-04-15T04:54:14;5.60;99.90
14786;DHT22;7484;49.906;9.058;2023-04-15T04:56:42;5.60;99.90
14786;DHT22;7484;49.906;9.058;2023-04-15T04:59:09;5.70;99.90
14786;DHT22;7484;49.906;9.058;2023-04-15T05:01:35;5.70;99.90
14786;DHT22;7484;49.906;9.058;2023-04-15T05:04:02;5.70;99.90
14786;DHT22;7484;49.906;9.058;2023-04-15T05:06:29;5.70;99.90
14786;DHT22;7484;49.906;9.058;2023-04-15T05:08:57;5.70;99.90
14786;DHT22;7484;49.906;9.058;2023-04-15T05:11:25;5.80;99.90
14786;DHT22;7484;49.906;9.058;2023-04-15T05:13:52;5.70;99.90
14786;DHT22;7484;49.906;9.058;2023-04-15T05:16:19;5.80;99.90
14786;DHT22;7484;49.906;9.058;2023-04-15T05:18:46;5.90;99.90
14786;DHT22;7484;49.906;9.058;2023-04-15T05:21:13;6.10;99.90
14786;DHT22;7484;49.906;9.058;2023-04-15T05:23:40;6.30;99.90
14786;DHT22;7484;49.906;9.058;2023-04-15T05:26:07;6.50;99.90
14786;DHT22;7484;49.906;9.058;2023-04-15T05:28:35;6.50;99.90
14786;DHT22;7484;49.906;9.058;2023-04-15T05:31:02;6.40;99.90
14786;DHT22;7484;49.906;9.058;2023-04-15T05:33:29;6.40;99.90
14786;DHT22;7484;49.906;9.058;2023-04-15T05:35:56;6.30;99.90
14786;DHT22;7484;49.906;9.058;2023-04-15T05:38:23;6.30;99.90
14786;DHT22;7484;49.906;9.058;2023-04-15T05:40:50;6.40;99.90
14786;DHT22;7484;49.906;9.058;2023-04-15T05:43:17;6.40;99.90
14786;DHT22;7484;49.906;9.058;2023-04-15T05:45:45;6.30;99.90
14786;DHT22;7484;49.906;9.058;2023-04-15T05:48:12;6.30;99.90
14786;DHT22;7484;49.906;9.058;2023-04-15T05:50:40;6.40;99.90
14786;DHT22;7484;49.906;9.058;2023-04-15T05:53:12;6.40;99.90
14786;DHT22;7484;49.906;9.058;2023-04-15T05:55:39;6.50;99.90
14786;DHT22;7484;49.906;9.058;2023-04-15T05:58:06;6.60;99.90
14786;DHT22;7484;49.906;9.058;2023-04-15T06:00:33;6.70;99.90
14786;DHT22;7484;49.906;9.058;2023-04-15T06:03:02;6.80;99.90
14786;DHT22;7484;49.906;9.058;2023-04-15T06:05:29;7.00;99.90
14786;DHT22;7484;49.906;9.058;2023-04-15T06:07:56;7.20;99.90
14786;DHT22;7484;49.906;9.058;2023-04-15T06:10:23;7.20;99.90
14786;DHT22;7484;49.906;9.058;2023-04-15T06:12:52;7.30;99.90
14786;DHT22;7484;49.906;9.058;2023-04-15T06:15:19;7.50;99.90
14786;DHT22;7484;49.906;9.058;2023-04-15T06:17:46;7.50;99.90
14786;DHT22;7484;49.906;9.058;2023-04-15T06:20:14;7.60;99.90
14786;DHT22;7484;49.906;9.058;2023-04-15T06:22:41;7.60;99.90
14786;DHT22;7484;49.906;9.058;2023-04-15T06:25:08;7.60;99.90
14786;DHT22;7484;49.906;9.058;2023-04-15T06:27:35;7.70;99.90
14786;DHT22;7484;49.906;9.058;2023-04-15T06:30:03;7.70;99.90
14786;DHT22;7484;49.906;9.058;2023-04-15T06:32:31;7.80;99.90
14786;DHT22;7484;49.906;9.058;2023-04-15T06:34:58;7.90;99.90
14786;DHT22;7484;49.906;9.058;2023-04-15T06:37:26;7.90;99.90
14786;DHT22;7484;49.906;9.058;2023-04-15T06:39:53;7.90;99.90
14786;DHT22;7484;49.906;9.058;2023-04-15T06:42:20;8.00;99.90
14786;DHT22;7484;49.906;9.058;2023-04-15T06:44:48;8.00;99.90
14786;DHT22;7484;49.906;9.058;2023-04-15T06:47:15;8.10;99.90
14786;DHT22;7484;49.906;9.058;2023-04-15T06:49:42;8.20;99.90
14786;DHT22;7484;49.906;9.058;2023-04-15T06:52:09;8.10;99.90
14786;DHT22;7484;49.906;9.058;2023-04-15T06:54:38;7.80;99.90
14786;DHT22;7484;49.906;9.058;2023-04-15T06:57:05;7.60;99.90
14786;DHT22;7484;49.906;9.058;2023-04-15T06:59:33;7.40;99.90
14786;DHT22;7484;49.906;9.058;2023-04-15T07:02:00;7.50;99.90
14786;DHT22;7484;49.906;9.058;2023-04-15T07:04:27;7.70;99.90
14786;DHT22;7484;49.906;9.058;2023-04-15T07:06:54;7.70;99.90
14786;DHT22;7484;49.906;9.058;2023-04-15T07:09:21;8.00;99.90
14786;DHT22;7484;49.906;9.058;2023-04-15T07:11:50;8.20;99.90
14786;DHT22;7484;49.906;9.058;2023-04-15T07:14:17;8.20;99.90
14786;DHT22;7484;49.906;9.058;2023-04-15T07:16:44;8.20;99.90
14786;DHT22;7484;49.906;9.058;2023-04-15T07:19:11;8.10;99.90
14786;DHT22;7484;49.906;9.058;2023-04-15T07:21:38;8.30;99.90
14786;DHT22;7484;49.906;9.058;2023-04-15T07:24:06;8.60;99.90
14786;DHT22;7484;49.906;9.058;2023-04-15T07:26:33;8.80;99.90
14786;DHT22;7484;49.906;9.058;2023-04-15T07:29:01;9.00;99.90
14786;DHT22;7484;49.906;9.058;2023-04-15T07:31:28;9.10;99.90
14786;DHT22;7484;49.906;9.058;2023-04-15T07:33:55;9.20;99.90
14786;DHT22;7484;49.906;9.058;2023-04-15T07:36:23;9.30;99.90
14786;DHT22;7484;49.906;9.058;2023-04-15T07:38:50;9.30;99.90
14786;DHT22;7484;49.906;9.058;2023-04-15T07:41:17;9.40;99.90
14786;DHT22;7484;49.906;9.058;2023-04-15T07:43:45;9.30;99.90
14786;DHT22;7484;49.906;9.058;2023-04-15T07:46:13;9.30;99.90
14786;DHT22;7484;49.906;9.058;2023-04-15T07:48:40;9.30;99.90
14786;DHT22;7484;49.906;9.058;2023-04-15T07:51:07;9.40;99.90
14786;DHT22;7484;49.906;9.058;2023-04-15T07:53:35;9.50;99.90
14786;DHT22;7484;49.906;9.058;2023-04-15T07:56:03;9.60;99.90
14786;DHT22;7484;49.906;9.058;2023-04-15T07:58:30;9.60;99.90
14786;DHT22;7484;49.906;9.058;2023-04-15T08:00:57;9.70;99.90
14786;DHT22;7484;49.906;9.058;2023-04-15T08:03:25;9.60;99.90
14786;DHT22;7484;49.906;9.058;2023-04-15T08:05:52;9.60;99.90
14786;DHT22;7484;49.906;9.058;2023-04-15T08:08:19;9.50;99.90
14786;DHT22;7484;49.906;9.058;2023-04-15T08:10:47;9.50;99.90
14786;DHT22;7484;49.906;9.058;2023-04-15T08:13:14;9.50;99.90
14786;DHT22;7484;49.906;9.058;2023-04-15T08:15:41;9.60;99.90
14786;DHT22;7484;49.906;9.058;2023-04-15T08:18:08;9.70;99.90
14786;DHT22;7484;49.906;9.058;2023-04-15T08:20:37;9.70;99.90
14786;DHT22;7484;49.906;9.058;2023-04-15T08:23:04;9.70;99.90
14786;DHT22;7484;49.906;9.058;2023-04-15T08:25:30;9.80;99.90
14786;DHT22;7484;49.906;9.058;2023-04-15T08:27:58;9.70;99.90
14786;DHT22;7484;49.906;9.058;2023-04-15T08:30:25;9.80;99.90
14786;DHT22;7484;49.906;9.058;2023-04-15T08:32:52;9.90;99.90
14786;DHT22;7484;49.906;9.058;2023-04-15T08:35:19;10.00;99.90
14786;DHT22;7484;49.906;9.058;2023-04-15T08:37:48;10.10;99.90
14786;DHT22;7484;49.906;9.058;2023-04-15T08:40:15;10.20;99.90
14786;DHT22;7484;49.906;9.058;2023-04-15T08:42:44;10.40;99.90
14786;DHT22;7484;49.906;9.058;2023-04-15T08:45:12;10.50;99.90
14786;DHT22;7484;49.906;9.058;2023-04-15T08:47:40;10.60;99.90
14786;DHT22;7484;49.906;9.058;2023-04-15T08:50:09;10.60;99.90
14786;DHT22;7484;49.906;9.058;2023-04-15T08:52:36;10.80;99.90
14786;DHT22;7484;49.906;9.058;2023-04-15T08:55:05;10.80;99.90
14786;DHT22;7484;49.906;9.058;2023-04-15T08:57:35;10.80;99.90
14786;DHT22;7484;49.906;9.058;2023-04-15T09:00:03;10.80;99.90
14786;DHT22;7484;49.906;9.058;2023-04-15T09:02:30;10.80;99.90
14786;DHT22;7484;49.906;9.058;2023-04-15T09:04:57;10.90;99.90
14786;DHT22;7484;49.906;9.058;2023-04-15T09:07:24;10.90;99.90
14786;DHT22;7484;49.906;9.058;2023-04-15T09:09:51;11.10;99.90
14786;DHT22;7484;49.906;9.058;2023-04-15T09:12:20;11.10;99.90
14786;DHT22;7484;49.906;9.058;2023-04-15T09:14:47;11.10;99.90
14786;DHT22;7484;49.906;9.058;2023-04-15T09:17:18;11.20;99.90
14786;DHT22;7484;49.906;9.058;2023-04-15T09:19:46;11.20;99.90
14786;DHT22;7484;49.906;9.058;2023-04-15T09:22:13;11.20;99.90
14786;DHT22;7484;49.906;9.058;2023-04-15T09:24:41;11.30;99.90
14786;DHT22;7484;49.906;9.058;2023-04-15T09:27:08;11.40;99.90
14786;DHT22;7484;49.906;9.058;2023-04-15T09:29:37;11.50;99.90
14786;DHT22;7484;49.906;9.058;2023-04-15T09:32:14;11.50;99.90
14786;DHT22;7484;49.906;9.058;2023-04-15T09:34:42;11.50;99.90
14786;DHT22;7484;49.906;9.058;2023-04-15T09:37:09;11.60;99.90
14786;DHT22;7484;49.906;9.058;2023-04-15T09:39:45;11.70;99.90
14786;DHT22;7484;49.906;9.058;2023-04-15T09:42:13;11.80;99.90
14786;DHT22;7484;49.906;9.058;2023-04-15T09:44:41;11.70;99.90
14786;DHT22;7484;49.906;9.058;2023-04-15T09:47:08;11.60;99.90
14786;DHT22;7484;49.906;9.058;2023-04-15T09:49:35;11.60;99.90
14786;DHT22;7484;49.906;9.058;2023-04-15T09:52:02;11.70;99.90
14786;DHT22;7484;49.906;9.058;2023-04-15T09:54:34;11.80;99.90
14786;DHT22;7484;49.906;9.058;2023-04-15T09:57:05;11.70;99.90
14786;DHT22;7484;49.906;9.058;2023-04-15T09:59:32;11.80;99.90
14786;DHT22;7484;49.906;9.058;2023-04-15T10:02:03;11.70;99.90
14786;DHT22;7484;49.906;9.058;2023-04-15T10:04:34;11.80;99.90
14786;DHT22;7484;49.906;9.058;2023-04-15T10:07:02;11.70;99.90
14786;DHT22;7484;49.906;9.058;2023-04-15T10:09:30;11.60;99.90
14786;DHT22;7484;49.906;9.058;2023-04-15T10:11:58;11.60;99.90
14786;DHT22;7484;49.906;9.058;2023-04-15T10:14:27;11.60;99.90
14786;DHT22;7484;49.906;9.058;2023-04-15T10:16:59;11.60;99.90
14786;DHT22;7484;49.906;9.058;2023-04-15T10:19:30;11.70;99.90
14786;DHT22;7484;49.906;9.058;2023-04-15T10:21:59;11.70;99.90
14786;DHT22;7484;49.906;9.058;2023-04-15T10:24:26;11.60;99.90
14786;DHT22;7484;49.906;9.058;2023-04-15T10:26:54;11.60;99.90
14786;DHT22;7484;49.906;9.058;2023-04-15T10:29:24;11.70;99.90
14786;DHT22;7484;49.906;9.058;2023-04-15T10:31:52;11.60;99.90
14786;DHT22;7484;49.906;9.058;2023-04-15T10:34:20;11.60;99.90
14786;DHT22;7484;49.906;9.058;2023-04-15T10:36:49;11.60;99.90
14786;DHT22;7484;49.906;9.058;2023-04-15T10:39:39;11.50;99.90
14786;DHT22;7484;49.906;9.058;2023-04-15T10:42:09;11.50;99.90
14786;DHT22;7484;49.906;9.058;2023-04-15T10:44:36;11.60;99.90
14786;DHT22;7484;49.906;9.058;2023-04-15T10:47:10;11.60;99.90
14786;DHT22;7484;49.906;9.058;2023-04-15T10:49:48;11.60;99.90
14786;DHT22;7484;49.906;9.058;2023-04-15T10:52:22;11.60;99.90
14786;DHT22;7484;49.906;9.058;2023-04-15T10:54:49;11.60;99.90
14786;DHT22;7484;49.906;9.058;2023-04-15T10:57:21;11.80;99.90
14786;DHT22;7484;49.906;9.058;2023-04-15T11:00:09;11.80;99.90
14786;DHT22;7484;49.906;9.058;2023-04-15T11:02:41;11.90;99.90
14786;DHT22;7484;49.906;9.058;2023-04-15T11:05:09;12.10;99.90
14786;DHT22;7484;49.906;9.058;2023-04-15T11:07:39;12.20;99.90
14786;DHT22;7484;49.906;9.058;2023-04-15T11:13:27;12.10;99.90
14786;DHT22;7484;49.906;9.058;2023-04-15T11:16:00;12.00;99.90
14786;DHT22;7484;49.906;9.058;2023-04-15T11:18:32;12.00;99.90
14786;DHT22;7484;49.906;9.058;2023-04-15T11:21:04;12.00;99.90
14786;DHT22;7484;49.906;9.058;2023-04-15T11:23:36;11.80;99.90
14786;DHT22;7484;49.906;9.058;2023-04-15T11:26:05;11.60;99.90
14786;DHT22;7484;49.906;9.058;2023-04-15T11:28:35;11.50;99.90
14786;DHT22;7484;49.906;9.058;2023-04-15T11:31:10;11.50;99.90
14786;DHT22;7484;49.906;9.058;2023-04-15T11:33:43;11.40;99.90
14786;DHT22;7484;49.906;9.058;2023-04-15T11:36:11;11.50;99.90
14786;DHT22;7484;49.906;9.058;2023-04-15T11:38:43;11.10;99.90
14786;DHT22;7484;49.906;9.058;2023-04-15T11:41:11;11.00;99.90
14786;DHT22;7484;49.906;9.058;2023-04-15T11:43:38;10.90;99.90
14786;DHT22;7484;49.906;9.058;2023-04-15T11:46:05;10.80;99.90
14786;DHT22;7484;49.906;9.058;2023-04-15T11:48:34;10.80;99.90
14786;DHT22;7484;49.906;9.058;2023-04-15T11:51:03;10.80;99.90
14786;DHT22;7484;49.906;9.058;2023-04-15T11:53:38;10.80;99.90
14786;DHT22;7484;49.906;9.058;2023-04-15T11:56:08;10.70;99.90
14786;DHT22;7484;49.906;9.058;2023-04-15T11:58:36;10.80;99.90
14786;DHT22;7484;49.906;9.058;2023-04-15T12:01:04;10.80;99.90
14786;DHT22;7484;49.906;9.058;2023-04-15T12:03:36;10.80;99.90
14786;DHT22;7484;49.906;9.058;2023-04-15T12:06:09;10.80;99.90
14786;DHT22;7484;49.906;9.058;2023-04-15T12:09:07;10.80;99.90
14786;DHT22;7484;49.906;9.058;2023-04-15T12:11:38;10.80;99.90
14786;DHT22;7484;49.906;9.058;2023-04-15T12:16:52;10.70;99.90
14786;DHT22;7484;49.906;9.058;2023-04-15T12:19:25;10.50;99.90
14786;DHT22;7484;49.906;9.058;2023-04-15T12:21:57;10.40;99.90
14786;DHT22;7484;49.906;9.058;2023-04-15T12:24:24;10.30;99.90
14786;DHT22;7484;49.906;9.058;2023-04-15T12:26:53;10.40;99.90
14786;DHT22;7484;49.906;9.058;2023-04-15T12:29:25;10.40;99.90
14786;DHT22;7484;49.906;9.058;2023-04-15T12:31:54;10.40;99.90
14786;DHT22;7484;49.906;9.058;2023-04-15T12:34:29;10.30;99.90
14786;DHT22;7484;49.906;9.058;2023-04-15T12:36:58;10.30;99.90
14786;DHT22;7484;49.906;9.058;2023-04-15T12:39:38;10.30;99.90
14786;DHT22;7484;49.906;9.058;2023-04-15T12:42:07;10.30;99.90
14786;DHT22;7484;49.906;9.058;2023-04-15T12:44:34;10.40;99.90
14786;DHT22;7484;49.906;9.058;2023-04-15T12:47:01;10.40;99.90
14786;DHT22;7484;49.906;9.058;2023-04-15T12:49:29;10.30;99.90
14786;DHT22;7484;49.906;9.058;2023-04-15T12:51:58;10.30;99.90
14786;DHT22;7484;49.906;9.058;2023-04-15T12:54:26;10.40;99.90
14786;DHT22;7484;49.906;9.058;2023-04-15T12:56:53;10.40;99.90
14786;DHT22;7484;49.906;9.058;2023-04-15T12:59:22;10.30;99.90
14786;DHT22;7484;49.906;9.058;2023-04-15T13:01:50;10.30;99.90
14786;DHT22;7484;49.906;9.058;2023-04-15T13:04:18;10.30;99.90
14786;DHT22;7484;49.906;9.058;2023-04-15T13:06:46;10.30;99.90
14786;DHT22;7484;49.906;9.058;2023-04-15T13:09:13;10.30;99.90
14786;DHT22;7484;49.906;9.058;2023-04-15T13:11:40;10.40;99.90
14786;DHT22;7484;49.906;9.058;2023-04-15T13:14:08;10.30;99.90
14786;DHT22;7484;49.906;9.058;2023-04-15T13:16:37;10.30;99.90
14786;DHT22;7484;49.906;9.058;2023-04-15T13:19:04;10.40;99.90
14786;DHT22;7484;49.906;9.058;2023-04-15T13:21:32;10.40;99.90
14786;DHT22;7484;49.906;9.058;2023-04-15T13:23:59;10.40;99.90
14786;DHT22;7484;49.906;9.058;2023-04-15T13:26:26;10.50;99.90
14786;DHT22;7484;49.906;9.058;2023-04-15T13:28:53;10.50;99.90
14786;DHT22;7484;49.906;9.058;2023-04-15T13:31:20;10.50;99.90
14786;DHT22;7484;49.906;9.058;2023-04-15T13:33:49;10.50;99.90
14786;DHT22;7484;49.906;9.058;2023-04-15T13:36:15;10.50;99.90
14786;DHT22;7484;49.906;9.058;2023-04-15T13:38:42;10.50;99.90
14786;DHT22;7484;49.906;9.058;2023-04-15T13:41:09;10.40;99.90
14786;DHT22;7484;49.906;9.058;2023-04-15T13:43:36;10.40;99.90
14786;DHT22;7484;49.906;9.058;2023-04-15T13:46:03;10.30;99.90
14786;DHT22;7484;49.906;9.058;2023-04-15T13:48:30;10.30;99.90
14786;DHT22;7484;49.906;9.058;2023-04-15T13:50:58;10.30;99.90
14786;DHT22;7484;49.906;9.058;2023-04-15T13:53:25;10.30;99.90
14786;DHT22;7484;49.906;9.058;2023-04-15T13:55:52;10.30;99.90
14786;DHT22;7484;49.906;9.058;2023-04-15T13:58:19;10.40;99.90
14786;DHT22;7484;49.906;9.058;2023-04-15T14:00:49;10.40;99.90
14786;DHT22;7484;49.906;9.058;2023-04-15T14:03:17;10.40;99.90
14786;DHT22;7484;49.906;9.058;2023-04-15T14:05:44;10.40;99.90
14786;DHT22;7484;49.906;9.058;2023-04-15T14:08:13;10.40;99.90
14786;DHT22;7484;49.906;9.058;2023-04-15T14:10:40;10.40;99.90
14786;DHT22;7484;49.906;9.058;2023-04-15T14:13:08;10.40;99.90
14786;DHT22;7484;49.906;9.058;2023-04-15T14:15:35;10.50;99.90
14786;DHT22;7484;49.906;9.058;2023-04-15T14:18:02;10.40;99.90
14786;DHT22;7484;49.906;9.058;2023-04-15T14:20:29;10.30;99.90
14786;DHT22;7484;49.906;9.058;2023-04-15T14:22:56;10.20;99.90
14786;DHT22;7484;49.906;9.058;2023-04-15T14:25:25;10.20;99.90
14786;DHT22;7484;49.906;9.058;2023-04-15T14:27:52;10.10;99.90
14786;DHT22;7484;49.906;9.058;2023-04-15T14:30:19;10.10;99.90
14786;DHT22;7484;49.906;9.058;2023-04-15T14:32:47;10.10;99.90
14786;DHT22;7484;49.906;9.058;2023-04-15T14:35:14;10.00;99.90
14786;DHT22;7484;49.906;9.058;2023-04-15T14:37:41;10.00;99.90
14786;DHT22;7484;49.906;9.058;2023-04-15T14:40:09;9.80;99.90
14786;DHT22;7484;49.906;9.058;2023-04-15T14:42:37;9.70;99.90
14786;DHT22;7484;49.906;9.058;2023-04-15T14:45:05;9.60;99.90
14786;DHT22;7484;49.906;9.058;2023-04-15T14:47:32;9.50;99.90
14786;DHT22;7484;49.906;9.058;2023-04-15T14:49:59;9.50;99.90
14786;DHT22;7484;49.906;9.058;2023-04-15T14:52:25;9.60;99.90
14786;DHT22;7484;49.906;9.058;2023-04-15T14:54:52;9.60;99.90
14786;DHT22;7484;49.906;9.058;2023-04-15T14:57:19;9.70;99.90
14786;DHT22;7484;49.906;9.058;2023-04-15T14:59:47;9.80;99.90
14786;DHT22;7484;49.906;9.058;2023-04-15T15:02:20;9.80;99.90
14786;DHT22;7484;49.906;9.058;2023-04-15T15:04:47;9.80;99.90
14786;DHT22;7484;49.906;9.058;2023-04-15T15:07:14;9.70;99.90
14786;DHT22;7484;49.906;9.058;2023-04-15T15:09:41;9.70;99.90
14786;DHT22;7484;49.906;9.058;2023-04-15T15:12:08;9.70;99.90
14786;DHT22;7484;49.906;9.058;2023-04-15T15:14:35;9.70;99.90
14786;DHT22;7484;49.906;9.058;2023-04-15T15:17:03;9.70;99.90
14786;DHT22;7484;49.906;9.058;2023-04-15T15:19:30;9.70;99.90
14786;DHT22;7484;49.906;9.058;2023-04-15T15:21:57;9.70;99.90
14786;DHT22;7484;49.906;9.058;2023-04-15T15:24:24;9.60;99.90
14786;DHT22;7484;49.906;9.058;2023-04-15T15:26:51;9.70;99.90
14786;DHT22;7484;49.906;9.058;2023-04-15T15:29:17;9.60;99.90
14786;DHT22;7484;49.906;9.058;2023-04-15T15:31:48;9.60;99.90
14786;DHT22;7484;49.906;9.058;2023-04-15T15:34:16;9.60;99.90
14786;DHT22;7484;49.906;9.058;2023-04-15T15:36:43;9.50;99.90
14786;DHT22;7484;49.906;9.058;2023-04-15T15:39:10;9.50;99.90
14786;DHT22;7484;49.906;9.058;2023-04-15T15:41:37;9.50;99.90
14786;DHT22;7484;49.906;9.058;2023-04-15T15:44:04;9.40;99.90
14786;DHT22;7484;49.906;9.058;2023-04-15T15:46:31;9.40;99.90
14786;DHT22;7484;49.906;9.058;2023-04-15T15:48:58;9.40;99.90
14786;DHT22;7484;49.906;9.058;2023-04-15T15:51:26;9.40;99.90
14786;DHT22;7484;49.906;9.058;2023-04-15T15:53:53;9.50;99.90
14786;DHT22;7484;49.906;9.058;2023-04-15T15:56:20;9.50;99.90
14786;DHT22;7484;49.906;9.058;2023-04-15T15:58:47;9.50;99.90
14786;DHT22;7484;49.906;9.058;2023-04-15T16:01:14;9.50;99.90
14786;DHT22;7484;49.906;9.058;2023-04-15T16:03:41;9.40;99.90
14786;DHT22;7484;49.906;9.058;2023-04-15T16:06:08;9.40;99.90
14786;DHT22;7484;49.906;9.058;2023-04-15T16:08:36;9.40;99.90